Terminal Aerodrome Forecast
Issued by NWS

Home | Current Version | Previous Version | Text Only | Print | Product List | Glossary On
Versions: 1 2 3 4 5 6 7 8 9 10 11 12 13 14 15 16
725
FTUS41 KCAR 161134
TAFBHB
TAF
KBHB 161134Z 1612/1712 35006KT P6SM VCSH OVC040
     FM162300 31008KT P6SM SCT080=

USA.gov is the U.S. government's official web portal to all federal, state and local government web resources and services.